Time;durP1;ratioP1;P1;durP2;ratioP2;P2;SDS_P1;SDS_P2;PMS_P1;PMS_P2;Temp;Humidity;BMP_temperature;BMP_pressure;BME280_temperature;BME280_humidity;BME280_pressure;Samples;Min_cycle;Max_cycle;Signal;HPM_P1;HPM_P2
2023/06/26 00:00:34;334379.00;1.11;577.01;0.00;0.00;0.62;;;;;24.80;1.00;;;;;;2271931;61;842;-87
2023/06/26 00:03:02;204591.00;0.68;353.83;0.00;0.00;0.62;;;;;24.80;1.00;;;;;;2272553;61;1621;-87
2023/06/26 00:05:30;89519.00;0.30;155.48;0.00;0.00;0.62;;;;;24.90;1.00;;;;;;2272621;61;1151;-86
2023/06/26 00:08:01;142079.00;0.47;246.15;0.00;0.00;0.62;;;;;24.70;1.00;;;;;;2272366;61;1798;-87
2023/06/26 00:10:29;274472.00;0.91;474.03;0.00;0.00;0.62;;;;;24.50;1.00;;;;;;2272437;61;1925;-87
2023/06/26 00:13:01;1406065.00;4.69;2467.58;137055.00;0.46;237.49;;;;;24.30;1.00;;;;;;2274287;55;3790;-86
2023/06/26 00:15:31;896456.00;2.99;1549.90;41292.00;0.14;72.12;;;;;24.30;1.00;;;;;;2272498;61;1050;-88
2023/06/26 00:18:03;1320730.00;4.40;2310.09;108814.00;0.36;188.78;;;;;24.30;1.00;;;;;;2272407;61;1491;-87
2023/06/26 00:20:33;1453625.00;4.85;2556.16;186009.00;0.62;321.84;;;;;24.30;1.00;;;;;;2272440;61;1154;-87
2023/06/26 00:23:04;1186374.00;3.95;2065.60;127426.00;0.42;220.89;;;;;24.10;1.00;;;;;;2272455;61;1754;-86
2023/06/26 00:25:30;1218145.00;4.06;2123.06;145006.00;0.48;251.20;;;;;24.30;1.00;;;;;;2272481;61;1286;-87
2023/06/26 00:27:58;542127.00;1.81;934.39;79070.00;0.26;137.43;;;;;24.10;1.00;;;;;;2272196;61;1405;-86
2023/06/26 00:30:25;448370.00;1.49;772.98;77944.00;0.26;135.49;;;;;24.00;1.00;;;;;;2272477;61;1994;-87
2023/06/26 00:32:57;448419.00;1.49;773.06;99307.00;0.33;172.38;;;;;24.10;1.00;;;;;;2272413;61;1644;-88
2023/06/26 00:35:24;191391.00;0.64;331.10;0.00;0.00;0.62;;;;;24.10;1.00;;;;;;2272400;61;1452;-87
2023/06/26 00:37:51;218796.00;0.73;378.27;0.00;0.00;0.62;;;;;24.10;1.00;;;;;;2272426;61;1387;-87
2023/06/26 00:40:20;145059.00;0.48;251.29;0.00;0.00;0.62;;;;;24.10;1.00;;;;;;2272511;61;902;-88
2023/06/26 00:42:52;353660.00;1.18;610.15;0.00;0.00;0.62;;;;;24.20;1.00;;;;;;2272402;61;2306;-87
2023/06/26 00:45:19;208372.00;0.69;360.33;0.00;0.00;0.62;;;;;24.10;1.00;;;;;;2272453;61;1089;-88
2023/06/26 00:47:49;285893.00;0.95;493.67;0.00;0.00;0.62;;;;;24.00;1.00;;;;;;2272252;61;1785;-86
2023/06/26 00:50:17;175020.00;0.58;302.91;0.00;0.00;0.62;;;;;24.00;1.00;;;;;;2272300;61;1986;-86
2023/06/26 00:52:44;243929.00;0.81;421.51;0.00;0.00;0.62;;;;;23.90;1.00;;;;;;2272203;61;1571;-87
2023/06/26 00:55:12;438455.00;1.46;755.93;124939.00;0.42;216.60;;;;;23.80;1.00;;;;;;2272411;61;1856;-87
2023/06/26 00:57:40;511736.00;1.71;882.03;0.00;0.00;0.62;;;;;23.70;1.00;;;;;;2272346;61;1274;-89
2023/06/26 01:00:10;1600315.00;5.33;2833.34;74890.00;0.25;130.21;;;;;23.70;1.00;;;;;;2272205;61;992;-87
2023/06/26 01:02:38;1398657.00;4.66;2453.83;107506.00;0.36;186.53;;;;;23.70;1.00;;;;;;2272270;61;1036;-88
2023/06/26 01:07:41;618128.00;2.06;1065.53;86793.00;0.29;150.77;;;;;23.60;1.00;;;;;;2270408;61;1336;-88
2023/06/26 01:15:23;660347.00;2.20;1138.54;0.00;0.00;0.62;;;;;23.30;1.00;;;;;;2269767;61;1392;-87
2023/06/26 01:17:51;98097.00;0.33;170.29;0.00;0.00;0.62;;;;;23.30;1.00;;;;;;2268098;61;1321;-88
2023/06/26 01:20:20;408036.00;1.36;703.62;0.00;0.00;0.62;;;;;23.10;1.00;;;;;;2268078;61;1559;-87
2023/06/26 01:23:01;253124.00;0.84;437.32;0.00;0.00;0.62;;;;;22.80;1.00;;;;;;2268003;61;1019;-89
2023/06/26 01:25:52;253739.00;0.85;438.38;0.00;0.00;0.62;;;;;22.80;1.00;;;;;;2267992;61;1654;-88
2023/06/26 01:28:28;459943.00;1.53;792.89;0.00;0.00;0.62;;;;;22.60;1.00;;;;;;2273918;55;3818;-88
2023/06/26 01:31:01;908249.00;3.03;1570.61;9619.00;0.03;17.29;;;;;22.60;1.00;;;;;;2272433;40;3596;-89
2023/06/26 01:33:33;1051863.00;3.51;1824.55;16646.00;0.06;29.46;;;;;22.70;1.00;;;;;;2267885;61;1681;-87
2023/06/26 01:36:01;1298172.00;4.33;2268.76;0.00;0.00;0.62;;;;;22.90;1.00;;;;;;2298968;40;3781;-89
2023/06/26 01:41:50;715064.00;2.38;1233.37;133154.00;0.44;230.77;;;;;22.80;1.00;;;;;;2268076;61;861;-88
2023/06/26 01:44:28;470108.00;1.57;810.38;91480.00;0.30;158.86;;;;;22.70;1.00;;;;;;2267974;61;974;-88
2023/06/26 01:47:04;233490.00;0.78;403.55;0.00;0.00;0.62;;;;;22.40;1.00;;;;;;2268018;61;1537;-87
2023/06/26 01:49:48;197390.00;0.66;341.43;0.00;0.00;0.62;;;;;22.20;1.00;;;;;;2270763;56;3806;-88
2023/06/26 01:52:23;311460.00;1.04;537.62;0.00;0.00;0.62;;;;;22.40;1.00;;;;;;2268050;61;1912;-87
2023/06/26 01:55:05;216584.00;0.72;374.47;0.00;0.00;0.62;;;;;22.40;1.00;;;;;;2267976;61;1767;-89
2023/06/26 01:57:33;345000.00;1.15;595.27;21984.00;0.07;38.71;;;;;22.50;1.00;;;;;;2284791;40;3634;-87
2023/06/26 02:00:06;1617905.00;5.39;2867.01;95882.00;0.32;166.46;;;;;22.50;1.00;;;;;;2272137;61;1777;-89
2023/06/26 02:02:33;452395.00;1.51;779.90;82823.00;0.28;143.91;;;;;22.50;1.00;;;;;;2271944;61;1093;-87
2023/06/26 02:05:01;553646.00;1.85;954.24;83788.00;0.28;145.58;;;;;22.30;1.00;;;;;;2271811;61;2275;-87
2023/06/26 02:07:28;437015.00;1.46;753.45;0.00;0.00;0.62;;;;;22.20;1.00;;;;;;2271866;61;1743;-86
2023/06/26 02:09:55;295529.00;0.99;510.23;0.00;0.00;0.62;;;;;21.80;1.00;;;;;;2295554;55;3738;-89
2023/06/26 02:12:22;316393.00;1.05;546.10;0.00;0.00;0.62;;;;;21.70;1.00;;;;;;2267606;61;1998;-87
2023/06/26 02:14:52;328419.00;1.09;566.77;0.00;0.00;0.62;;;;;21.50;1.00;;;;;;2267779;61;1612;-87
2023/06/26 02:17:21;197580.00;0.66;341.76;0.00;0.00;0.62;;;;;21.60;1.00;;;;;;2276612;40;3821;-89
2023/06/26 02:19:49;535071.00;1.78;922.23;0.00;0.00;0.62;;;;;21.60;1.00;;;;;;2271389;61;1672;-89
2023/06/26 02:22:17;468473.00;1.56;807.56;0.00;0.00;0.62;;;;;21.60;1.00;;;;;;2271705;61;1566;-88
2023/06/26 02:24:45;300544.00;1.00;518.86;0.00;0.00;0.62;;;;;21.70;1.00;;;;;;2271677;61;1689;-88
2023/06/26 02:27:12;159974.00;0.53;276.99;0.00;0.00;0.62;;;;;22.00;1.00;;;;;;2271928;61;1394;-88
2023/06/26 02:29:41;327958.00;1.09;565.98;0.00;0.00;0.62;;;;;22.10;1.00;;;;;;2271931;61;1635;-88
2023/06/26 02:32:14;252313.00;0.84;435.93;0.00;0.00;0.62;;;;;22.20;1.00;;;;;;2278908;55;3768;-87
2023/06/26 02:34:43;656983.00;2.19;1132.72;24910.00;0.08;43.77;;;;;22.30;1.00;;;;;;2271959;61;1579;-88
2023/06/26 02:37:10;1622410.00;5.41;2875.64;74655.00;0.25;129.80;;;;;22.20;1.00;;;;;;2286896;55;3762;-89
2023/06/26 02:42:07;692544.00;2.31;1194.31;86452.00;0.29;150.18;;;;;22.30;1.00;;;;;;2265487;61;1417;-87
2023/06/26 02:44:34;274478.00;0.91;474.04;0.00;0.00;0.62;;;;;22.50;1.00;;;;;;2263804;61;1025;-88
2023/06/26 02:47:01;232649.00;0.78;402.11;0.00;0.00;0.62;;;;;22.10;1.00;;;;;;2263775;61;1623;-89
2023/06/26 02:49:33;304845.00;1.02;526.25;0.00;0.00;0.62;;;;;22.10;1.00;;;;;;2263533;61;1600;-88
2023/06/26 02:52:06;464668.00;1.55;801.02;0.00;0.00;0.62;;;;;22.10;1.00;;;;;;2274768;56;3731;-88
2023/06/26 02:54:36;322439.00;1.07;556.49;0.00;0.00;0.62;;;;;21.90;1.00;;;;;;2267756;61;1221;-87
2023/06/26 02:57:03;1250559.00;4.17;2181.90;6290.00;0.02;11.52;;;;;21.80;1.00;;;;;;2273115;40;3604;-87
2023/06/26 02:59:30;1630695.00;5.44;2891.55;73169.00;0.24;127.24;;;;;21.60;1.00;;;;;;2267829;61;917;-88
2023/06/26 03:02:00;1219828.00;4.07;2126.11;71754.00;0.24;124.79;;;;;21.40;1.00;;;;;;2267741;61;962;-88
2023/06/26 03:04:28;1240749.00;4.14;2164.07;39933.00;0.13;69.77;;;;;21.20;1.00;;;;;;2267908;61;1277;-88
2023/06/26 03:06:55;434474.00;1.45;749.08;85588.00;0.29;148.69;;;;;21.00;1.00;;;;;;2267931;61;1722;-88
2023/06/26 03:09:23;569851.00;1.90;982.19;87147.00;0.29;151.38;;;;;21.10;1.00;;;;;;2289243;40;3635;-86
2023/06/26 03:11:52;445131.00;1.48;767.41;0.00;0.00;0.62;;;;;20.80;1.00;;;;;;2267932;61;2013;-89
2023/06/26 03:14:20;327248.00;1.09;564.76;0.00;0.00;0.62;;;;;20.90;1.00;;;;;;2267800;61;1290;-87
2023/06/26 03:16:47;194627.00;0.65;336.67;0.00;0.00;0.62;;;;;20.80;1.00;;;;;;2267805;61;1780;-87
2023/06/26 03:19:14;209649.00;0.70;362.53;0.00;0.00;0.62;;;;;20.90;1.00;;;;;;2267879;61;1743;-88
2023/06/26 03:21:41;564981.00;1.88;973.79;0.00;0.00;0.62;;;;;20.80;1.00;;;;;;2283094;56;3790;-88
2023/06/26 03:24:09;545453.00;1.82;940.12;11469.00;0.04;20.49;;;;;20.60;1.00;;;;;;2267933;61;1678;-86
2023/06/26 03:29:06;1082773.00;3.61;1879.64;151803.00;0.51;262.91;;;;;20.70;1.00;;;;;;2269606;61;1293;-87
2023/06/26 03:31:33;1585943.00;5.29;2805.90;119557.00;0.40;207.32;;;;;20.60;1.00;;;;;;2272121;40;3612;-88
2023/06/26 03:34:00;1764963.00;5.88;3152.36;216483.00;0.72;374.29;;;;;20.70;1.00;;;;;;2272002;61;1727;-86
2023/06/26 03:36:28;1915553.00;6.39;3452.34;114080.00;0.38;197.87;;;;;20.90;1.00;;;;;;2272112;61;1615;-86
2023/06/26 03:38:56;1161942.00;3.87;2021.56;139031.00;0.46;240.90;;;;;20.80;1.00;;;;;;2272608;61;1393;-88
2023/06/26 03:46:29;652004.00;2.17;1124.10;0.00;0.00;0.62;;;;;21.30;1.00;;;;;;2266192;61;1449;-88
2023/06/26 03:49:01;261884.00;0.87;452.39;0.00;0.00;0.62;;;;;21.50;1.00;;;;;;2264567;61;938;-86
2023/06/26 03:51:28;305223.00;1.02;526.90;0.00;0.00;0.62;;;;;21.50;1.00;;;;;;2264183;61;2016;-86
2023/06/26 03:53:55;142142.00;0.47;246.26;0.00;0.00;0.62;;;;;21.70;1.00;;;;;;2270202;40;3638;-88
2023/06/26 03:56:24;390491.00;1.30;673.46;0.00;0.00;0.62;;;;;21.70;1.00;;;;;;2291392;56;3779;-89
2023/06/26 03:58:52;428518.00;1.43;738.84;0.00;0.00;0.62;;;;;21.70;1.00;;;;;;2334197;40;3737;-87
2023/06/26 04:01:21;291543.00;0.97;503.38;0.00;0.00;0.62;;;;;21.70;1.00;;;;;;2272670;61;1200;-88
2023/06/26 04:03:50;157886.00;0.53;273.40;0.00;0.00;0.62;;;;;21.70;1.00;;;;;;2277831;40;3628;-87
2023/06/26 04:08:47;303005.00;1.01;523.09;0.00;0.00;0.62;;;;;21.80;1.00;;;;;;2270348;61;1353;-87
2023/06/26 04:11:15;279830.00;0.93;483.25;27754.00;0.09;48.70;;;;;22.10;1.00;;;;;;2268306;61;2033;-87
2023/06/26 04:13:42;373862.00;1.25;644.87;0.00;0.00;0.62;;;;;22.30;1.00;;;;;;2268263;61;1579;-86
2023/06/26 04:16:11;130013.00;0.43;225.35;0.00;0.00;0.62;;;;;22.30;1.00;;;;;;2268349;61;1762;-87
2023/06/26 04:18:38;586779.00;1.96;1011.40;7547.00;0.03;13.70;;;;;22.60;1.00;;;;;;2299016;56;3840;-88
2023/06/26 04:21:11;1648349.00;5.49;2925.50;112026.00;0.37;194.33;;;;;22.60;1.00;;;;;;2272291;61;1654;-88
2023/06/26 04:23:44;1695607.00;5.65;3016.89;76358.00;0.25;132.75;;;;;22.40;1.00;;;;;;2285942;55;3730;-88
2023/06/26 04:26:13;1571254.00;5.24;2777.93;165860.00;0.55;287.14;;;;;22.30;1.00;;;;;;2272439;61;989;-86
2023/06/26 04:31:15;345542.00;1.15;596.20;87247.00;0.29;151.55;;;;;22.20;1.00;;;;;;2280012;56;1799;-87
2023/06/26 04:36:16;674494.00;2.25;1163.04;82456.00;0.27;143.28;;;;;22.00;1.00;;;;;;2273991;61;1289;-87
2023/06/26 04:41:16;929197.00;3.10;1607.46;0.00;0.00;0.62;;;;;22.10;1.00;;;;;;2290586;55;3684;-88
2023/06/26 04:46:16;338105.00;1.13;583.42;0.00;0.00;0.62;;;;;22.10;1.00;;;;;;2273925;61;1275;-87
2023/06/26 04:48:44;257812.00;0.86;445.39;0.00;0.00;0.62;;;;;22.00;1.00;;;;;;2268360;61;1029;-88
2023/06/26 04:53:42;382605.00;1.28;659.90;0.00;0.00;0.62;;;;;22.40;1.00;;;;;;2270348;61;1912;-88
2023/06/26 04:56:10;254019.00;0.85;438.86;0.00;0.00;0.62;;;;;22.80;1.00;;;;;;2268453;61;1593;-86
2023/06/26 04:58:37;402161.00;1.34;693.52;0.00;0.00;0.62;;;;;22.80;1.00;;;;;;2268411;61;1461;-87
2023/06/26 05:01:06;211567.00;0.71;365.83;0.00;0.00;0.62;;;;;22.80;1.00;;;;;;2268307;61;945;-87
2023/06/26 05:03:36;386438.00;1.29;666.49;122811.00;0.41;212.93;;;;;22.90;1.00;;;;;;2268436;61;1756;-87
2023/06/26 05:06:03;137484.00;0.46;238.23;0.00;0.00;0.62;;;;;22.90;1.00;;;;;;2268334;61;1018;-85
2023/06/26 05:08:31;155778.00;0.52;269.76;0.00;0.00;0.62;;;;;22.90;1.00;;;;;;2268419;61;1574;-87
2023/06/26 05:13:33;574349.00;1.91;989.95;0.00;0.00;0.62;;;;;22.90;1.00;;;;;;2273756;61;1977;-89
2023/06/26 05:16:00;258500.00;0.86;446.57;0.00;0.00;0.62;;;;;23.10;1.00;;;;;;2280387;40;3649;-88
2023/06/26 05:18:27;267547.00;0.89;462.13;0.00;0.00;0.62;;;;;23.30;1.00;;;;;;2276140;61;1749;-86
2023/06/26 05:21:03;267185.00;0.89;461.50;0.00;0.00;0.62;;;;;23.40;1.00;;;;;;2276456;61;973;-86
2023/06/26 05:23:35;376587.00;1.26;649.56;24071.00;0.08;42.32;;;;;23.70;1.00;;;;;;2276462;61;1576;-88
2023/06/26 05:26:05;181715.00;0.61;314.44;0.00;0.00;0.62;;;;;23.80;1.00;;;;;;2276526;61;1677;-86
2023/06/26 05:28:36;252928.00;0.84;436.99;0.00;0.00;0.62;;;;;24.10;1.00;;;;;;2276395;61;1600;-87
2023/06/26 05:31:08;174853.00;0.58;302.63;0.00;0.00;0.62;;;;;24.50;1.00;;;;;;2284640;55;3741;-86
2023/06/26 05:33:37;145060.00;0.48;251.29;0.00;0.00;0.62;;;;;24.40;1.00;;;;;;2272494;61;2018;-85
2023/06/26 05:36:06;187600.00;0.63;324.58;0.00;0.00;0.62;;;;;24.80;1.00;;;;;;2272469;61;1189;-87
2023/06/26 05:38:37;342342.00;1.14;590.70;71941.00;0.24;125.11;;;;;25.10;1.00;;;;;;2272363;61;1443;-87
2023/06/26 05:41:11;79764.00;0.27;138.63;0.00;0.00;0.62;;;;;25.40;1.00;;;;;;2272451;61;1260;-89
2023/06/26 05:43:39;125163.00;0.42;216.99;0.00;0.00;0.62;;;;;26.10;1.00;;;;;;2272460;61;1685;-86
2023/06/26 05:46:07;282379.00;0.94;487.63;0.00;0.00;0.62;;;;;27.50;1.00;;;;;;2272346;61;1010;-87
2023/06/26 05:48:38;123691.00;0.41;214.45;0.00;0.00;0.62;;;;;28.70;1.00;;;;;;2272448;61;1305;-90
2023/06/26 05:51:06;501830.00;1.67;864.97;28477.00;0.09;49.95;;;;;30.10;1.00;;;;;;2272386;61;1521;-88
2023/06/26 05:53:33;295113.00;0.98;509.52;0.00;0.00;0.62;;;;;31.20;1.00;;;;;;2272061;61;1914;-88
2023/06/26 05:56:01;251744.00;0.84;434.95;0.00;0.00;0.62;;;;;32.30;1.00;;;;;;2272263;61;1631;-87
2023/06/26 05:58:32;91899.00;0.31;159.59;0.00;0.00;0.62;;;;;32.50;1.00;;;;;;2272027;61;1501;-87
2023/06/26 06:01:00;241044.00;0.80;416.55;0.00;0.00;0.62;;;;;33.10;1.00;;;;;;2272246;61;1047;-85
2023/06/26 06:03:31;320190.00;1.07;552.62;0.00;0.00;0.62;;;;;33.10;1.00;;;;;;2272084;61;1680;-87
2023/06/26 06:05:59;157835.00;0.53;273.31;0.00;0.00;0.62;;;;;33.20;1.00;;;;;;2272287;61;1243;-87
2023/06/26 06:08:51;247829.00;0.83;428.22;15144.00;0.05;26.86;;;;;33.60;1.00;;;;;;2272058;61;1435;-87
2023/06/26 06:11:18;287872.00;0.96;497.07;0.00;0.00;0.62;;;;;34.30;1.00;;;;;;2269588;61;1735;-85
2023/06/26 06:13:45;189770.00;0.63;328.31;0.00;0.00;0.62;;;;;34.60;1.00;;;;;;2272119;61;1935;-87
2023/06/26 06:16:13;108286.00;0.36;187.87;0.00;0.00;0.62;;;;;34.50;1.00;;;;;;2272161;61;1505;-88
2023/06/26 06:18:41;118353.00;0.39;205.24;0.00;0.00;0.62;;;;;35.20;1.00;;;;;;2272162;61;1328;-88
2023/06/26 06:21:12;193847.00;0.65;335.33;0.00;0.00;0.62;;;;;35.10;1.00;;;;;;2272150;61;1029;-87
2023/06/26 06:23:39;31094.00;0.10;54.48;0.00;0.00;0.62;;;;;35.40;1.00;;;;;;2272138;61;1561;-87
2023/06/26 06:26:10;74449.00;0.25;129.45;0.00;0.00;0.62;;;;;35.20;1.00;;;;;;2272084;61;1622;-87
2023/06/26 06:28:38;273514.00;0.91;472.39;0.00;0.00;0.62;;;;;35.60;1.00;;;;;;2272090;61;1655;-87
2023/06/26 06:31:05;75200.00;0.25;130.75;0.00;0.00;0.62;;;;;36.30;1.00;;;;;;2272048;61;1765;-86
2023/06/26 06:33:34;286799.00;0.96;495.23;56102.00;0.19;97.74;;;;;37.10;1.00;;;;;;2272144;61;2010;-90
2023/06/26 06:36:02;19219.00;0.06;33.92;0.00;0.00;0.62;;;;;37.50;1.00;;;;;;2272108;61;1433;-89
2023/06/26 06:38:29;159169.00;0.53;275.61;14703.00;0.05;26.10;;;;;38.00;1.00;;;;;;2272142;61;2513;-88
2023/06/26 06:40:56;134239.00;0.45;232.64;0.00;0.00;0.62;;;;;39.10;1.00;;;;;;2272204;61;903;-86
2023/06/26 06:43:24;73906.00;0.25;128.51;0.00;0.00;0.62;;;;;39.10;1.00;;;;;;2272102;61;1037;-88
2023/06/26 06:45:50;157277.00;0.52;272.35;0.00;0.00;0.62;;;;;39.00;1.00;;;;;;2272135;61;1718;-89
2023/06/26 06:48:18;243432.00;0.81;420.65;0.00;0.00;0.62;;;;;39.00;1.00;;;;;;2272121;61;1399;-88
2023/06/26 06:50:46;278830.00;0.93;481.53;0.00;0.00;0.62;;;;;39.00;1.00;;;;;;2272198;61;1003;-87
2023/06/26 06:53:13;139486.00;0.46;241.68;0.00;0.00;0.62;;;;;38.90;1.00;;;;;;2272192;61;1997;-88
2023/06/26 06:55:40;66318.00;0.22;115.40;0.00;0.00;0.62;;;;;39.50;1.00;;;;;;2272199;61;1663;-87
2023/06/26 06:58:08;204147.00;0.68;353.06;0.00;0.00;0.62;;;;;39.80;1.00;;;;;;2272011;61;1410;-86
2023/06/26 07:03:04;274449.00;0.91;473.99;0.00;0.00;0.62;;;;;39.90;1.00;;;;;;2265650;61;1250;-88
2023/06/26 07:05:32;321498.00;1.07;554.87;0.00;0.00;0.62;;;;;40.30;1.00;;;;;;2263881;61;1580;-88
2023/06/26 07:08:01;118520.00;0.40;205.53;0.00;0.00;0.62;;;;;40.40;1.00;;;;;;2314151;40;3652;-89
2023/06/26 07:10:28;81117.00;0.27;140.97;0.00;0.00;0.62;;;;;41.20;1.00;;;;;;2272177;61;1601;-89
2023/06/26 07:12:56;203719.00;0.68;352.33;0.00;0.00;0.62;;;;;41.40;1.00;;;;;;2287955;40;3576;-88
2023/06/26 07:15:23;380028.00;1.27;655.47;100273.00;0.33;174.04;;;;;41.60;1.00;;;;;;2272756;61;1695;-87
2023/06/26 07:17:50;118920.00;0.40;206.22;0.00;0.00;0.62;;;;;41.40;1.00;;;;;;2272526;61;1591;-88
2023/06/26 07:20:18;250456.00;0.83;432.74;49195.00;0.16;85.79;;;;;41.30;1.00;;;;;;2272776;61;1541;-89
2023/06/26 07:22:45;68885.00;0.23;119.83;0.00;0.00;0.62;;;;;41.40;1.00;;;;;;2272494;61;1648;-87
2023/06/26 07:25:14;83764.00;0.28;145.54;0.00;0.00;0.62;;;;;42.40;1.00;;;;;;2272594;61;1735;-86
2023/06/26 07:27:44;31496.00;0.10;55.17;0.00;0.00;0.62;;;;;43.00;1.00;;;;;;2329068;40;3623;-88
2023/06/26 07:30:14;222371.00;0.74;384.42;0.00;0.00;0.62;;;;;43.50;1.00;;;;;;2268667;61;1644;-89
2023/06/26 07:32:42;211070.00;0.70;364.98;0.00;0.00;0.62;;;;;43.60;1.00;;;;;;2274919;55;3762;-89
2023/06/26 07:35:09;47288.00;0.16;82.50;0.00;0.00;0.62;;;;;42.80;1.00;;;;;;2273276;61;1153;-90
2023/06/26 07:37:37;482743.00;1.61;832.12;0.00;0.00;0.62;;;;;42.20;1.00;;;;;;2286405;40;3780;-88
2023/06/26 07:40:05;162939.00;0.54;282.10;0.00;0.00;0.62;;;;;41.80;1.00;;;;;;2272788;61;1727;-88
2023/06/26 07:42:34;167059.00;0.56;289.20;0.00;0.00;0.62;;;;;41.80;1.00;;;;;;2272714;61;1184;-88
2023/06/26 07:45:01;271766.00;0.91;469.38;61039.00;0.20;106.27;;;;;41.70;1.00;;;;;;2272603;61;1093;-88
2023/06/26 07:47:31;211505.00;0.71;365.73;0.00;0.00;0.62;;;;;42.50;1.00;;;;;;2286356;40;3775;-88
2023/06/26 07:50:01;146187.00;0.49;253.24;0.00;0.00;0.62;;;;;42.00;1.00;;;;;;2313259;40;3602;-88
2023/06/26 07:52:30;165922.00;0.55;287.24;0.00;0.00;0.62;;;;;41.70;1.00;;;;;;2303611;40;3597;-89
2023/06/26 07:54:57;130740.00;0.44;226.61;0.00;0.00;0.62;;;;;41.20;1.00;;;;;;2280048;55;3750;-88
2023/06/26 07:57:27;158592.00;0.53;274.61;0.00;0.00;0.62;;;;;40.90;1.00;;;;;;2272598;61;1332;-88
2023/06/26 07:59:56;125668.00;0.42;217.86;0.00;0.00;0.62;;;;;41.40;1.00;;;;;;2286706;55;3759;-88
2023/06/26 08:02:29;139870.00;0.47;242.35;0.00;0.00;0.62;;;;;41.60;1.00;;;;;;2358370;55;3688;-89
2023/06/26 08:04:57;164029.00;0.55;283.98;0.00;0.00;0.62;;;;;42.30;1.00;;;;;;2279932;56;3763;-89
2023/06/26 08:07:24;191100.00;0.64;330.60;0.00;0.00;0.62;;;;;41.80;1.00;;;;;;2290529;40;3736;-88
2023/06/26 08:09:51;181967.00;0.61;314.88;0.00;0.00;0.62;;;;;41.90;1.00;;;;;;2272513;61;1119;-89
2023/06/26 08:12:21;43977.00;0.15;76.77;0.00;0.00;0.62;;;;;41.00;1.00;;;;;;2272470;61;1589;-89
2023/06/26 08:14:48;166717.00;0.56;288.61;0.00;0.00;0.62;;;;;40.20;1.00;;;;;;2272550;61;2010;-88
2023/06/26 08:17:17;259068.00;0.86;447.55;0.00;0.00;0.62;;;;;40.60;1.00;;;;;;2272455;61;2242;-88
2023/06/26 08:22:17;346962.00;1.16;598.64;0.00;0.00;0.62;;;;;40.60;1.00;;;;;;2273949;61;1286;-89
2023/06/26 08:24:47;70039.00;0.23;121.83;0.00;0.00;0.62;;;;;40.20;1.00;;;;;;2272614;61;1576;-89
2023/06/26 08:27:15;34706.00;0.12;60.73;0.00;0.00;0.62;;;;;40.20;1.00;;;;;;2272487;61;1270;-89
2023/06/26 08:29:42;38991.00;0.13;68.14;0.00;0.00;0.62;;;;;40.20;1.00;;;;;;2272472;61;946;-86
2023/06/26 08:32:10;141949.00;0.47;245.93;0.00;0.00;0.62;;;;;40.50;1.00;;;;;;2272457;61;1646;-89
2023/06/26 08:34:41;117930.00;0.39;204.51;0.00;0.00;0.62;;;;;40.80;1.00;;;;;;2282076;55;3606;-89
2023/06/26 08:37:13;429022.00;1.43;739.70;76730.00;0.26;133.39;;;;;40.80;1.00;;;;;;2272382;61;1501;-89
2023/06/26 08:39:42;234509.00;0.78;405.31;0.00;0.00;0.62;;;;;40.60;1.00;;;;;;2272322;61;1787;-89
2023/06/26 08:44:38;396210.00;1.32;683.29;0.00;0.00;0.62;;;;;40.80;1.00;;;;;;2269888;61;1408;-88
2023/06/26 08:47:09;100660.00;0.34;174.71;0.00;0.00;0.62;;;;;40.70;1.00;;;;;;2268207;61;1656;-89
2023/06/26 08:49:44;217335.00;0.72;375.76;0.00;0.00;0.62;;;;;40.80;1.00;;;;;;2268415;61;950;-87
2023/06/26 08:52:20;274580.00;0.92;474.22;7414.00;0.02;13.47;;;;;40.70;1.00;;;;;;2268411;61;1432;-89
2023/06/26 08:54:55;54688.00;0.18;95.29;0.00;0.00;0.62;;;;;41.60;1.00;;;;;;2279992;40;3473;-86
2023/06/26 08:59:53;665022.00;2.22;1146.63;38564.00;0.13;67.40;;;;;41.20;1.00;;;;;;2269817;61;1381;-88
2023/06/26 09:04:53;290430.00;0.97;501.47;0.00;0.00;0.62;;;;;39.90;1.00;;;;;;2270365;61;1222;-90
2023/06/26 09:07:20;189041.00;0.63;327.06;0.00;0.00;0.62;;;;;40.00;1.00;;;;;;2268255;61;1575;-87
2023/06/26 09:09:51;190993.00;0.64;330.42;0.00;0.00;0.62;;;;;40.70;1.00;;;;;;2325079;40;3609;-87
2023/06/26 09:12:28;233214.00;0.78;403.08;0.00;0.00;0.62;;;;;40.70;1.00;;;;;;2271955;61;1728;-89
2023/06/26 09:14:58;106640.00;0.36;185.03;0.00;0.00;0.62;;;;;40.60;1.00;;;;;;2317857;55;3543;-88
2023/06/26 09:17:28;29643.00;0.10;51.97;0.00;0.00;0.62;;;;;40.80;1.00;;;;;;2272211;61;1383;-88
2023/06/26 09:19:56;124907.00;0.42;216.55;0.00;0.00;0.62;;;;;40.20;1.00;;;;;;2272105;61;1032;-87
2023/06/26 09:22:24;127374.00;0.42;220.80;0.00;0.00;0.62;;;;;39.80;1.00;;;;;;2272361;61;1644;-87
2023/06/26 09:24:53;112370.00;0.37;194.92;0.00;0.00;0.62;;;;;39.60;1.00;;;;;;2272259;61;1592;-88
2023/06/26 09:27:23;65960.00;0.22;114.78;0.00;0.00;0.62;;;;;39.60;1.00;;;;;;2272143;61;1415;-89
2023/06/26 09:29:51;159234.00;0.53;275.72;0.00;0.00;0.62;;;;;39.50;1.00;;;;;;2272182;61;1769;-87
2023/06/26 09:32:21;145628.00;0.49;252.27;0.00;0.00;0.62;;;;;39.10;1.00;;;;;;2272365;61;1461;-88
2023/06/26 09:34:49;259974.00;0.87;449.10;0.00;0.00;0.62;;;;;38.70;1.00;;;;;;2283229;56;3583;-86
2023/06/26 09:37:18;254985.00;0.85;440.52;42109.00;0.14;73.54;;;;;38.60;1.00;;;;;;2272361;61;1457;-88
2023/06/26 09:42:16;333723.00;1.11;575.89;0.00;0.00;0.62;;;;;38.30;1.00;;;;;;2269570;61;1408;-87
2023/06/26 09:49:45;212829.00;0.71;368.00;0.00;0.00;0.62;;;;;39.10;1.00;;;;;;2265695;61;1433;-88
2023/06/26 09:52:20;27477.00;0.09;48.22;0.00;0.00;0.62;;;;;38.50;1.00;;;;;;2264277;61;1658;-88
2023/06/26 09:55:01;63558.00;0.21;110.63;0.00;0.00;0.62;;;;;37.90;1.00;;;;;;2264117;61;1934;-88
2023/06/26 09:57:29;283333.00;0.94;489.27;71089.00;0.24;123.64;;;;;37.20;1.00;;;;;;2361446;40;3837;-90
2023/06/26 09:59:57;374912.00;1.25;646.68;79383.00;0.26;137.97;;;;;37.40;1.00;;;;;;2327238;40;3622;-89
2023/06/26 10:02:25;283268.00;0.94;489.16;73665.00;0.25;128.09;;;;;37.60;1.00;;;;;;2277276;40;3611;-89
2023/06/26 10:04:54;443475.00;1.48;764.56;78583.00;0.26;136.59;;;;;37.50;1.00;;;;;;2272108;61;1804;-89
2023/06/26 10:07:25;253625.00;0.85;438.19;74120.00;0.25;128.88;;;;;38.00;1.00;;;;;;2289574;55;3762;-87
2023/06/26 10:10:00;421824.00;1.41;727.33;71741.00;0.24;124.77;;;;;37.90;1.00;;;;;;2272063;61;1029;-89
2023/06/26 10:12:30;125382776.00;417.94;79858568.00;66352.00;0.22;115.46;;;;;38.10;1.00;;;;;;2271950;61;1790;-89
2023/06/26 10:17:42;349406.00;1.16;602.84;68960.00;0.23;119.96;;;;;38.00;1.00;;;;;;2006141;60;2392;-88
2023/06/26 10:20:11;821805.00;2.74;1419.18;72713.00;0.24;126.45;;;;;38.00;1.00;;;;;;2264135;61;1580;-87
2023/06/26 10:22:45;206176.00;0.69;356.55;63529.00;0.21;110.58;;;;;38.30;1.00;;;;;;2273201;55;3755;-87
2023/06/26 10:25:13;924674.00;3.08;1599.50;142997.00;0.48;247.74;;;;;38.20;1.00;;;;;;2283484;40;3621;-88
2023/06/26 10:27:45;948750.00;3.16;1641.91;82149.00;0.27;142.75;;;;;38.10;1.00;;;;;;2281938;40;3823;-86
2023/06/26 10:32:52;1177010.00;3.92;2048.71;83908.00;0.28;145.79;;;;;38.20;1.00;;;;;;2185966;59;1731;-89
2023/06/26 10:37:51;1088099.00;3.63;1889.15;116167.00;0.39;201.47;;;;;38.40;1.00;;;;;;2272537;55;3724;-87
2023/06/26 10:40:28;1164247.00;3.88;2025.71;91220.00;0.30;158.41;;;;;38.10;1.00;;;;;;2272199;61;1022;-86
2023/06/26 10:45:30;1463866.00;4.88;2575.31;277333.00;0.92;478.95;;;;;36.60;1.00;;;;;;2269977;61;1222;-87
2023/06/26 10:50:51;120093456.00;400.31;70163832.00;83150.00;0.28;144.48;;;;;36.40;1.00;;;;;;2269701;61;1432;-86
2023/06/26 10:53:27;415421.00;1.38;716.32;68896.00;0.23;119.85;;;;;36.80;1.00;;;;;;2267873;61;1923;-87
2023/06/26 10:56:00;21173.00;0.07;37.30;0.00;0.00;0.62;;;;;37.00;1.00;;;;;;2267977;61;1660;-87
2023/06/26 10:58:32;190301.00;0.63;329.23;0.00;0.00;0.62;;;;;36.60;1.00;;;;;;2268030;61;1427;-87
2023/06/26 11:01:18;125403.00;0.42;217.40;0.00;0.00;0.62;;;;;36.50;1.00;;;;;;2268045;61;1635;-90
2023/06/26 11:03:50;361965.00;1.21;624.43;64532.00;0.22;112.31;;;;;36.80;1.00;;;;;;2267912;61;915;-89
2023/06/26 11:06:26;242547.00;0.81;419.13;76889.00;0.26;133.66;;;;;37.20;1.00;;;;;;2267973;61;1597;-88
2023/06/26 11:09:02;235636.00;0.79;407.24;84106.00;0.28;146.13;;;;;37.00;1.00;;;;;;2267987;61;1549;-88